Search for airport 
image banner adimage banner ad
image banner ad

LERE - Requena

Located in Requena (Valencia), Spain

ICAO - LERE, IATA -

Data provided by Airmate  

General information

Coordinates: N39°28'29" W1°2'4"
Elevation is 2340 feet MSL.
 
Rated:
View ratings: [VIEW]


View others Airports in Valencia

Operational data

Open for public use
Current time UTC:
Current local time:
Weather at : LEVC - Valencia/Manises ( 47 km )
METAR: LEVC 091500Z 13009KT 100V160 CAVOK 31/17 Q1015 NOSIG
TAF: TAF LEVC 091100Z 0912/1012 10010KT 9999 FEW025 TX33/0912Z TN23/1006Z BECMG 0917/0920 VRB03KT
View NOTAMs / SUP AIP / TFR affecting this airport [VIEW]
Communications frequencies: [VIEW]

Runways:

RWY identifierQFULength (ft)Width (ft)SurfaceLDA (ft)
12326459ASPH2822
30326459ASPH2822

Airport contact information

Address: Requena (Valencia) Spain

Satellite view of LERE